createdAt,value
2023-02-03T00:00:33.998Z,4.80
2023-02-03T00:03:01.488Z,3.33
2023-02-03T00:05:28.712Z,4.55
2023-02-03T00:07:55.844Z,4.05
2023-02-03T00:10:23.654Z,3.99
2023-02-03T00:12:52.772Z,4.81
2023-02-03T00:15:20.467Z,4.53
2023-02-03T00:17:47.910Z,4.96
2023-02-03T00:20:15.210Z,4.82
2023-02-03T00:22:42.428Z,3.74
2023-02-03T00:25:09.914Z,4.85
2023-02-03T00:27:37.157Z,3.81
2023-02-03T00:30:04.594Z,5.04
2023-02-03T00:32:32.426Z,5.28
2023-02-03T00:34:59.771Z,4.76
2023-02-03T00:37:26.931Z,5.78
2023-02-03T00:39:54.531Z,5.84
2023-02-03T00:42:21.620Z,6.32
2023-02-03T00:44:48.817Z,5.56
2023-02-03T00:47:16.375Z,5.74
2023-02-03T00:49:43.524Z,5.01
2023-02-03T00:52:10.856Z,5.15
2023-02-03T00:54:39.184Z,4.62
2023-02-03T00:57:06.456Z,3.99
2023-02-03T00:59:33.653Z,4.49
2023-02-03T01:02:01.224Z,6.64
2023-02-03T01:04:28.828Z,4.63
2023-02-03T01:06:57.705Z,4.07
2023-02-03T01:09:25.755Z,4.20
2023-02-03T01:11:54.871Z,4.25
2023-02-03T01:14:22.095Z,5.13
2023-02-03T01:16:49.673Z,5.87
2023-02-03T01:19:17.541Z,7.98
2023-02-03T01:21:45.156Z,5.72
2023-02-03T01:24:15.032Z,6.92
2023-02-03T01:26:42.656Z,8.13
2023-02-03T01:29:10.018Z,7.67
2023-02-03T01:31:39.793Z,8.05
2023-02-03T01:34:08.567Z,5.69
2023-02-03T01:36:35.975Z,3.88
2023-02-03T01:39:03.722Z,7.42
2023-02-03T01:41:32.037Z,6.36
2023-02-03T01:43:59.715Z,6.00
2023-02-03T01:46:37.479Z,5.78
2023-02-03T01:49:07.938Z,7.47
2023-02-03T01:51:35.752Z,6.42
2023-02-03T01:54:03.249Z,5.47
2023-02-03T01:56:30.700Z,3.62
2023-02-03T01:59:00.249Z,3.82
2023-02-03T02:01:28.529Z,4.44
2023-02-03T02:03:56.394Z,4.33
2023-02-03T02:06:23.711Z,5.13
2023-02-03T02:08:51.550Z,5.63
2023-02-03T02:11:21.397Z,4.09
2023-02-03T02:13:51.764Z,4.42
2023-02-03T02:16:24.506Z,3.97
2023-02-03T02:18:51.842Z,4.81
2023-02-03T02:21:19.545Z,3.17
2023-02-03T02:24:00.636Z,3.34
2023-02-03T02:26:40.216Z,4.60
2023-02-03T02:29:16.287Z,2.76
2023-02-03T02:31:47.714Z,3.96
2023-02-03T02:34:16.817Z,4.00
2023-02-03T02:36:55.021Z,5.52
2023-02-03T02:39:22.163Z,5.74
2023-02-03T02:41:53.508Z,5.58
2023-02-03T02:44:26.983Z,5.78
2023-02-03T02:46:58.388Z,5.70
2023-02-03T02:49:39.702Z,5.86
2023-02-03T02:52:08.542Z,5.62
2023-02-03T02:54:40.643Z,5.12
2023-02-03T02:57:11.199Z,5.13
2023-02-03T02:59:38.387Z,4.82
2023-02-03T03:02:05.573Z,4.62
2023-02-03T03:04:33.692Z,4.73
2023-02-03T03:07:11.990Z,4.53
2023-02-03T03:09:40.861Z,4.98
2023-02-03T03:12:08.281Z,5.42
2023-02-03T03:14:35.631Z,5.01
2023-02-03T03:17:05.016Z,5.28
2023-02-03T03:19:33.175Z,5.84
2023-02-03T03:22:01.806Z,5.46
2023-02-03T03:24:33.832Z,5.30
2023-02-03T03:27:21.218Z,4.93
2023-02-03T03:29:49.864Z,4.94
2023-02-03T03:32:17.374Z,4.81
2023-02-03T03:34:44.621Z,4.56
2023-02-03T03:37:17.829Z,4.90
2023-02-03T03:39:55.576Z,4.81
2023-02-03T03:42:29.602Z,5.30
2023-02-03T03:44:59.714Z,4.97
2023-02-03T03:47:30.563Z,4.90
2023-02-03T03:49:58.051Z,5.02
2023-02-03T03:52:26.944Z,4.67
2023-02-03T03:54:54.359Z,5.15
2023-02-03T03:57:23.212Z,5.40
2023-02-03T03:59:50.503Z,4.94
2023-02-03T04:02:18.402Z,4.53
2023-02-03T04:04:46.109Z,4.86
2023-02-03T04:07:14.221Z,5.00
2023-02-03T04:09:42.950Z,5.34
2023-02-03T04:12:14.302Z,5.70
2023-02-03T04:14:42.015Z,6.62
2023-02-03T04:17:09.418Z,5.67
2023-02-03T04:19:39.241Z,6.44
2023-02-03T04:22:06.476Z,5.90
2023-02-03T04:24:33.688Z,5.76
2023-02-03T04:27:01.123Z,5.92
2023-02-03T04:29:28.252Z,4.96
2023-02-03T04:31:55.595Z,5.64
2023-02-03T04:34:23.171Z,5.26
2023-02-03T04:36:50.278Z,5.04
2023-02-03T04:39:17.631Z,4.42
2023-02-03T04:41:45.140Z,4.51
2023-02-03T04:44:12.275Z,4.82
2023-02-03T04:46:39.707Z,4.85
2023-02-03T04:49:07.421Z,5.62
2023-02-03T04:51:34.739Z,6.05
2023-02-03T04:54:02.040Z,6.06
2023-02-03T04:56:29.624Z,6.71
2023-02-03T04:58:56.728Z,6.85
2023-02-03T05:01:24.141Z,6.65
2023-02-03T05:03:51.608Z,6.53
2023-02-03T05:06:22.934Z,5.92
2023-02-03T05:08:50.071Z,6.16
2023-02-03T05:11:17.483Z,3.83
2023-02-03T05:13:44.703Z,3.58
2023-02-03T05:16:12.057Z,2.20
2023-02-03T05:18:39.460Z,2.64
2023-02-03T05:21:06.743Z,2.09
2023-02-03T05:23:36.618Z,2.04
2023-02-03T05:26:04.994Z,1.77
2023-02-03T05:28:32.173Z,1.74
2023-02-03T05:30:59.619Z,1.98
2023-02-03T05:33:27.573Z,2.04
2023-02-03T05:35:54.742Z,2.37
2023-02-03T05:38:21.976Z,2.64
2023-02-03T05:41:08.238Z,2.65
2023-02-03T05:43:35.729Z,2.69
2023-02-03T05:46:06.782Z,4.50
2023-02-03T05:48:34.236Z,3.91
2023-02-03T05:51:01.556Z,5.00
2023-02-03T05:53:29.261Z,4.59
2023-02-03T05:55:56.579Z,4.89
2023-02-03T05:58:23.820Z,4.53
2023-02-03T06:00:51.861Z,4.62
2023-02-03T06:03:19.450Z,5.00
2023-02-03T06:05:46.813Z,4.58
2023-02-03T06:08:14.189Z,4.40
2023-02-03T06:10:41.931Z,4.36
2023-02-03T06:13:11.329Z,4.34
2023-02-03T06:15:38.940Z,4.36
2023-02-03T06:18:07.201Z,4.26
2023-02-03T06:20:34.869Z,4.53
2023-02-03T06:23:02.442Z,4.35
2023-02-03T06:25:32.732Z,4.55
2023-02-03T06:28:00.396Z,4.36
2023-02-03T06:30:28.444Z,4.31
2023-02-03T06:32:56.450Z,4.31
2023-02-03T06:35:25.048Z,4.56
2023-02-03T06:37:54.196Z,4.70
2023-02-03T06:40:22.090Z,4.90
2023-02-03T06:42:51.156Z,4.82
2023-02-03T06:45:19.221Z,4.55
2023-02-03T06:47:46.962Z,2.93
2023-02-03T06:50:15.419Z,2.07
2023-02-03T06:52:43.022Z,1.66
2023-02-03T06:55:11.293Z,2.31
2023-02-03T06:57:48.365Z,2.69
2023-02-03T07:00:19.196Z,1.68
2023-02-03T07:02:50.396Z,3.79
2023-02-03T07:05:18.339Z,3.81
2023-02-03T07:07:46.007Z,5.22
2023-02-03T07:10:13.541Z,4.07
2023-02-03T07:12:41.375Z,4.82
2023-02-03T07:15:09.481Z,4.76
2023-02-03T07:17:38.175Z,4.75
2023-02-03T07:20:06.243Z,4.86
2023-02-03T07:22:33.779Z,5.92
2023-02-03T07:25:01.204Z,6.61
2023-02-03T07:27:29.846Z,6.22
2023-02-03T07:29:57.510Z,6.51
2023-02-03T07:32:25.099Z,6.24
2023-02-03T07:34:53.793Z,6.24
2023-02-03T07:37:21.272Z,6.08
2023-02-03T07:39:48.927Z,5.97
2023-02-03T07:42:16.660Z,6.19
2023-02-03T07:44:44.287Z,5.02
2023-02-03T07:47:12.659Z,5.18
2023-02-03T07:49:40.484Z,5.85
2023-02-03T07:52:08.147Z,6.30
2023-02-03T07:54:35.586Z,5.90
2023-02-03T07:57:03.781Z,6.76
2023-02-03T07:59:31.294Z,4.34
2023-02-03T08:01:58.804Z,4.90
2023-02-03T08:04:26.689Z,4.82
2023-02-03T08:06:54.198Z,4.91
2023-02-03T08:09:22.029Z,6.21
2023-02-03T08:11:49.852Z,4.71
2023-02-03T08:14:17.369Z,5.15
2023-02-03T08:16:46.114Z,5.38
2023-02-03T08:19:14.189Z,5.78
2023-02-03T08:21:41.553Z,6.00
2023-02-03T08:24:09.345Z,5.83
2023-02-03T08:26:37.827Z,5.75
2023-02-03T08:29:06.030Z,4.54
2023-02-03T08:31:33.702Z,5.01
2023-02-03T08:34:14.020Z,4.05
2023-02-03T08:36:41.658Z,4.33
2023-02-03T08:39:09.734Z,4.23
2023-02-03T08:41:37.161Z,3.84
2023-02-03T08:44:04.555Z,3.37
2023-02-03T08:46:33.203Z,3.27
2023-02-03T08:49:02.858Z,3.88
2023-02-03T08:51:30.376Z,2.56
2023-02-03T08:53:58.236Z,2.36
2023-02-03T08:56:26.560Z,2.30
2023-02-03T08:58:55.894Z,2.70
2023-02-03T09:01:23.553Z,2.27
2023-02-03T09:03:50.775Z,2.21
2023-02-03T09:06:20.720Z,2.09
2023-02-03T09:08:49.557Z,1.76
2023-02-03T09:11:17.429Z,2.66
2023-02-03T09:13:48.694Z,2.42
2023-02-03T09:16:21.518Z,2.48
2023-02-03T09:18:49.063Z,2.53
2023-02-03T09:21:32.080Z,3.51
2023-02-03T09:24:04.101Z,2.67
2023-02-03T09:26:31.830Z,2.36
2023-02-03T09:28:59.177Z,3.51
2023-02-03T09:31:26.777Z,4.13
2023-02-03T09:33:54.708Z,3.89
2023-02-03T09:36:22.161Z,3.81
2023-02-03T09:38:49.321Z,4.57
2023-02-03T09:41:23.446Z,6.71
2023-02-03T09:43:55.799Z,5.99
2023-02-03T09:46:43.403Z,8.98
2023-02-03T09:49:22.857Z,9.60
2023-02-03T09:51:51.794Z,7.08
2023-02-03T09:54:35.180Z,7.86
2023-02-03T09:57:02.847Z,6.17
2023-02-03T09:59:30.065Z,6.88
2023-02-03T10:02:03.039Z,5.64
2023-02-03T10:04:39.995Z,7.41
2023-02-03T10:07:25.362Z,7.34
2023-02-03T10:09:52.960Z,5.64
2023-02-03T10:12:31.828Z,6.16
2023-02-03T10:15:18.375Z,5.59
2023-02-03T10:17:47.473Z,5.15
2023-02-03T10:20:21.795Z,5.69
2023-02-03T10:22:50.581Z,4.38
2023-02-03T10:25:35.089Z,3.62
2023-02-03T10:28:03.748Z,3.06
2023-02-03T10:30:33.335Z,3.11
2023-02-03T10:33:02.586Z,2.60
2023-02-03T10:35:35.966Z,2.59
2023-02-03T10:38:03.524Z,2.79
2023-02-03T10:40:31.173Z,2.51
2023-02-03T10:43:17.775Z,2.40
2023-02-03T10:45:45.561Z,2.64
2023-02-03T10:48:14.360Z,3.04
2023-02-03T10:50:42.965Z,3.35
2023-02-03T10:53:21.418Z,2.83
2023-02-03T10:55:53.225Z,2.82
2023-02-03T10:58:28.073Z,3.65
2023-02-03T11:00:59.212Z,3.69
2023-02-03T11:03:27.725Z,3.92
2023-02-03T11:06:03.741Z,3.60
2023-02-03T11:08:32.324Z,3.97
2023-02-03T11:11:04.413Z,4.42
2023-02-03T11:13:32.514Z,4.51
2023-02-03T11:16:01.342Z,2.93
2023-02-03T11:18:41.558Z,4.73
2023-02-03T11:21:09.580Z,7.12
2023-02-03T11:23:37.624Z,6.56
2023-02-03T11:26:11.932Z,7.45
2023-02-03T11:28:41.628Z,4.83
2023-02-03T11:31:18.153Z,4.14
2023-02-03T11:34:05.794Z,4.03
2023-02-03T11:36:37.612Z,5.16
2023-02-03T11:39:28.740Z,4.12
2023-02-03T11:41:56.149Z,3.58
2023-02-03T11:44:23.621Z,3.58
2023-02-03T11:46:52.610Z,3.92
2023-02-03T11:49:38.688Z,3.77
2023-02-03T11:52:20.542Z,3.37
2023-02-03T11:55:06.917Z,2.58
2023-02-03T11:57:45.001Z,2.50
2023-02-03T12:00:13.294Z,3.50
2023-02-03T12:02:50.171Z,3.61
2023-02-03T12:05:29.678Z,3.24
2023-02-03T12:08:08.732Z,3.79
2023-02-03T12:10:39.352Z,4.43
2023-02-03T12:13:16.958Z,5.46
2023-02-03T12:15:50.300Z,4.31
2023-02-03T12:18:24.054Z,4.67
2023-02-03T12:20:59.465Z,4.76
2023-02-03T12:23:39.379Z,4.57
2023-02-03T12:26:09.689Z,5.15
2023-02-03T12:28:46.474Z,4.57
2023-02-03T12:31:32.679Z,5.43
2023-02-03T12:34:03.052Z,5.74
2023-02-03T12:36:31.238Z,7.32
2023-02-03T12:39:03.136Z,7.85
2023-02-03T12:41:31.978Z,6.58
2023-02-03T12:44:02.360Z,4.82
2023-02-03T12:46:32.933Z,4.61
2023-02-03T12:49:06.055Z,4.09
2023-02-03T12:51:39.926Z,5.02
2023-02-03T12:54:25.867Z,6.02
2023-02-03T12:56:55.869Z,3.58
2023-02-03T12:59:25.977Z,3.25
2023-02-03T13:01:58.691Z,4.22
2023-02-03T13:04:46.964Z,3.93
2023-02-03T13:07:37.631Z,5.65
2023-02-03T13:10:35.834Z,6.44
2023-02-03T13:13:04.702Z,6.21
2023-02-03T13:15:44.223Z,7.03
2023-02-03T13:18:29.476Z,7.47
2023-02-03T13:20:57.128Z,6.71
2023-02-03T13:23:24.408Z,7.85
2023-02-03T13:26:11.238Z,8.22
2023-02-03T13:28:59.728Z,9.02
2023-02-03T13:31:45.828Z,4.83
2023-02-03T13:34:16.104Z,4.81
2023-02-03T13:36:52.467Z,7.23
2023-02-03T13:39:32.364Z,8.22
2023-02-03T13:42:20.217Z,8.65
2023-02-03T13:44:49.926Z,8.12
2023-02-03T13:47:18.710Z,5.10
2023-02-03T13:49:48.327Z,8.14
2023-02-03T13:52:36.464Z,8.76
2023-02-03T13:55:04.354Z,8.10
2023-02-03T13:57:33.904Z,7.28
2023-02-03T14:00:03.190Z,8.76
2023-02-03T14:02:41.589Z,6.22
2023-02-03T14:05:29.738Z,6.58
2023-02-03T14:07:57.348Z,7.46
2023-02-03T14:10:25.860Z,8.84
2023-02-03T14:12:53.367Z,6.58
2023-02-03T14:15:20.569Z,7.94
2023-02-03T14:17:48.110Z,6.17
2023-02-03T14:20:27.638Z,5.81
2023-02-03T14:23:07.153Z,4.49
2023-02-03T14:25:41.420Z,4.25
2023-02-03T14:28:12.256Z,3.80
2023-02-03T14:31:03.460Z,3.55
2023-02-03T14:33:51.341Z,3.40
2023-02-03T14:36:28.248Z,3.65
2023-02-03T14:38:57.002Z,3.86
2023-02-03T14:41:38.717Z,3.68
2023-02-03T14:44:18.950Z,3.43
2023-02-03T14:47:14.899Z,3.48
2023-02-03T14:49:56.900Z,3.84
2023-02-03T14:52:37.681Z,3.83
2023-02-03T14:55:24.479Z,4.24
2023-02-03T14:57:56.603Z,4.46
2023-02-03T15:00:27.480Z,4.53
2023-02-03T15:03:09.985Z,4.27
2023-02-03T15:05:41.985Z,4.08
2023-02-03T15:08:36.619Z,4.58
2023-02-03T15:11:42.383Z,5.36
2023-02-03T15:14:18.924Z,4.66
2023-02-03T15:16:51.754Z,4.82
2023-02-03T15:19:23.674Z,4.44
2023-02-03T15:21:52.484Z,4.62
2023-02-03T15:24:23.893Z,4.68
2023-02-03T15:26:54.853Z,5.08
2023-02-03T15:29:30.366Z,3.92
2023-02-03T15:32:14.286Z,3.55
2023-02-03T15:34:48.027Z,3.58
2023-02-03T15:37:52.609Z,3.35
2023-02-03T15:40:24.316Z,3.78
2023-02-03T15:42:58.173Z,3.44
2023-02-03T15:45:32.286Z,3.66
2023-02-03T15:48:18.242Z,3.83
2023-02-03T15:51:06.237Z,3.65
2023-02-03T15:53:47.219Z,3.46
2023-02-03T15:56:41.695Z,3.74
2023-02-03T15:59:31.257Z,3.67
2023-02-03T16:02:01.485Z,3.94
2023-02-03T16:04:31.417Z,3.56
2023-02-03T16:06:59.078Z,3.77
2023-02-03T16:09:34.859Z,3.76
2023-02-03T16:12:06.495Z,4.21
2023-02-03T16:14:36.307Z,3.46
2023-02-03T16:17:06.164Z,3.73
2023-02-03T16:19:40.336Z,3.65
2023-02-03T16:22:32.078Z,3.38
2023-02-03T16:25:14.105Z,3.47
2023-02-03T16:27:44.631Z,3.43
2023-02-03T16:30:30.610Z,3.68
2023-02-03T16:33:23.496Z,3.27
2023-02-03T16:36:09.639Z,3.44
2023-02-03T16:38:55.983Z,3.33
2023-02-03T16:41:41.839Z,3.21
2023-02-03T16:44:30.178Z,3.21
2023-02-03T16:47:16.794Z,3.47
2023-02-03T16:50:03.717Z,3.22
2023-02-03T16:52:32.002Z,3.29
2023-02-03T16:54:59.882Z,3.27
2023-02-03T16:57:28.727Z,3.26
2023-02-03T16:59:56.821Z,3.39
2023-02-03T17:02:24.772Z,3.68
2023-02-03T17:04:52.270Z,3.60
2023-02-03T17:07:20.029Z,3.22
2023-02-03T17:09:47.887Z,3.21
2023-02-03T17:12:15.734Z,3.41
2023-02-03T17:14:43.341Z,3.76
2023-02-03T17:17:11.159Z,3.78
2023-02-03T17:19:39.095Z,3.61
2023-02-03T17:22:07.882Z,3.74
2023-02-03T17:24:37.167Z,3.77
2023-02-03T17:27:04.943Z,3.62
2023-02-03T17:29:33.085Z,3.61
2023-02-03T17:32:01.261Z,3.47
2023-02-03T17:34:29.268Z,4.07
2023-02-03T17:36:57.094Z,3.88
2023-02-03T17:55:43.264Z,4.33
2023-02-03T17:58:11.034Z,4.02
2023-02-03T18:00:38.797Z,3.96
2023-02-03T18:03:06.619Z,4.31
2023-02-03T18:05:37.158Z,4.03
2023-02-03T18:08:12.386Z,4.08
2023-02-03T18:10:45.397Z,4.26
2023-02-03T18:13:13.499Z,4.36
2023-02-03T18:15:41.127Z,4.47
2023-02-03T18:18:09.677Z,4.18
2023-02-03T18:20:38.680Z,4.37
2023-02-03T18:23:06.924Z,4.30
2023-02-03T18:25:36.156Z,4.41
2023-02-03T18:28:04.315Z,4.98
2023-02-03T18:30:33.055Z,5.07
2023-02-03T18:33:02.560Z,4.93
2023-02-03T18:35:33.813Z,4.76
2023-02-03T18:38:03.671Z,4.39
2023-02-03T18:40:32.836Z,4.57
2023-02-03T18:43:02.412Z,4.68
2023-02-03T18:45:35.479Z,4.59
2023-02-03T18:48:07.208Z,4.70
2023-02-03T18:50:37.380Z,4.73
2023-02-03T18:53:07.810Z,4.76
2023-02-03T18:55:38.006Z,4.24
2023-02-03T18:58:08.104Z,4.99
2023-02-03T19:00:38.007Z,4.60
2023-02-03T19:03:06.695Z,5.37
2023-02-03T19:05:35.334Z,5.16
2023-02-03T19:08:04.409Z,5.05
2023-02-03T19:10:33.367Z,5.06
2023-02-03T19:13:03.447Z,4.75
2023-02-03T19:15:33.370Z,5.15
2023-02-03T19:18:02.612Z,5.89
2023-02-03T19:20:31.658Z,5.72
2023-02-03T19:23:04.151Z,6.82
2023-02-03T19:25:32.734Z,6.14
2023-02-03T19:28:03.660Z,5.41
2023-02-03T19:30:32.969Z,5.40
2023-02-03T19:33:02.445Z,4.79
2023-02-03T19:35:30.473Z,5.03
2023-02-03T19:37:58.044Z,5.86
2023-02-03T19:40:27.149Z,4.93
2023-02-03T19:42:55.721Z,5.03
2023-02-03T19:45:24.604Z,5.10
2023-02-03T19:47:53.779Z,5.84
2023-02-03T19:50:21.953Z,5.80
2023-02-03T19:52:50.762Z,5.02
2023-02-03T19:55:19.771Z,4.97
2023-02-03T19:57:51.646Z,4.38
2023-02-03T20:00:21.027Z,4.08
2023-02-03T20:02:50.287Z,4.27
2023-02-03T20:05:18.623Z,5.39
2023-02-03T20:07:47.454Z,6.19
2023-02-03T20:10:16.363Z,5.76
2023-02-03T20:12:45.031Z,5.32
2023-02-03T20:15:15.283Z,5.63
2023-02-03T20:17:44.569Z,6.13
2023-02-03T20:20:14.166Z,6.16
2023-02-03T20:22:45.457Z,6.97
2023-02-03T20:25:13.661Z,7.06
2023-02-03T20:27:42.408Z,6.40
2023-02-03T20:30:11.356Z,6.33
2023-02-03T20:32:40.010Z,6.65
2023-02-03T20:35:08.654Z,7.14
2023-02-03T20:37:39.623Z,6.31
2023-02-03T20:40:13.368Z,8.00
2023-02-03T20:42:43.337Z,7.83
2023-02-03T20:45:15.522Z,7.14
2023-02-03T20:47:44.886Z,7.80
2023-02-03T20:50:16.387Z,7.90
2023-02-03T20:52:46.300Z,7.55
2023-02-03T20:55:16.032Z,6.63
2023-02-03T20:57:45.153Z,7.47
2023-02-03T21:00:15.339Z,7.14
2023-02-03T21:03:02.278Z,6.25
2023-02-03T21:05:49.167Z,5.11
2023-02-03T21:08:19.466Z,4.72
2023-02-03T21:10:47.998Z,5.94
2023-02-03T21:13:19.622Z,7.06
2023-02-03T21:15:49.892Z,4.84
2023-02-03T21:18:33.354Z,4.81
2023-02-03T21:21:02.567Z,5.86
2023-02-03T21:23:36.663Z,4.64
2023-02-03T21:26:27.109Z,4.68
2023-02-03T21:28:56.217Z,4.52
2023-02-03T21:31:29.970Z,4.63
2023-02-03T21:33:59.388Z,4.44
2023-02-03T21:36:36.418Z,4.42
2023-02-03T21:39:10.389Z,4.31
2023-02-03T21:41:39.958Z,5.11
2023-02-03T21:44:21.807Z,5.17
2023-02-03T21:46:50.969Z,5.02
2023-02-03T21:49:19.218Z,4.41
2023-02-03T21:51:47.594Z,5.24
2023-02-03T21:54:21.665Z,5.24
2023-02-03T21:56:50.791Z,5.10
2023-02-03T21:59:19.593Z,5.57
2023-02-03T22:01:47.742Z,5.82
2023-02-03T22:04:15.921Z,6.07
2023-02-03T22:06:44.775Z,5.68
2023-02-03T22:09:12.926Z,4.95
2023-02-03T22:11:40.664Z,4.77
2023-02-03T22:14:08.304Z,5.01
2023-02-03T22:16:35.745Z,5.29
2023-02-03T22:19:03.640Z,5.51
2023-02-03T22:21:30.953Z,5.75
2023-02-03T22:23:59.053Z,5.24
2023-02-03T22:26:26.765Z,6.01
2023-02-03T22:28:54.082Z,4.95
2023-02-03T22:31:21.517Z,5.36
2023-02-03T22:33:49.735Z,5.26
2023-02-03T22:36:17.104Z,5.68
2023-02-03T22:38:44.331Z,5.19
2023-02-03T22:41:14.894Z,5.76
2023-02-03T22:43:42.138Z,5.59
2023-02-03T22:46:09.818Z,5.65
2023-02-03T22:48:37.320Z,5.57
2023-02-03T22:51:05.016Z,6.12
2023-02-03T22:53:32.226Z,5.69
2023-02-03T22:56:00.138Z,5.78
2023-02-03T22:58:27.301Z,5.83
2023-02-03T23:00:54.994Z,5.14
2023-02-03T23:03:22.553Z,5.53
2023-02-03T23:05:49.763Z,6.29
2023-02-03T23:08:16.934Z,5.79
2023-02-03T23:10:44.507Z,5.07
2023-02-03T23:13:11.860Z,5.68
2023-02-03T23:15:39.129Z,4.93
2023-02-03T23:18:06.615Z,5.28
2023-02-03T23:20:33.911Z,5.67
2023-02-03T23:23:01.107Z,5.89
2023-02-03T23:25:28.783Z,4.89
2023-02-03T23:27:56.029Z,5.60
2023-02-03T23:30:23.204Z,5.62
2023-02-03T23:32:50.763Z,4.50
2023-02-03T23:35:36.464Z,4.66
2023-02-03T23:38:04.358Z,4.65
2023-02-03T23:40:31.819Z,4.72
2023-02-03T23:42:59.216Z,4.71
2023-02-03T23:45:26.860Z,5.15
2023-02-03T23:47:54.222Z,5.14
2023-02-03T23:50:21.721Z,5.52
2023-02-03T23:52:49.154Z,4.60
2023-02-03T23:55:18.549Z,4.56
2023-02-03T23:57:45.942Z,4.57
